sensor_id;sensor_type;location;lat;lon;timestamp;temperature;humidity
28247;DHT22;34504;53.178;22.058;2022-08-25T00:00:20;23.20;90.30
28247;DHT22;34504;53.178;22.058;2022-08-25T00:03:03;23.20;90.40
28247;DHT22;34504;53.178;22.058;2022-08-25T00:05:31;23.20;90.50
28247;DHT22;34504;53.178;22.058;2022-08-25T00:08:01;23.10;90.60
28247;DHT22;34504;53.178;22.058;2022-08-25T00:10:29;23.10;90.70
28247;DHT22;34504;53.178;22.058;2022-08-25T00:12:58;23.00;90.80
28247;DHT22;34504;53.178;22.058;2022-08-25T00:15:27;23.00;90.90
28247;DHT22;34504;53.178;22.058;2022-08-25T00:17:55;22.90;91.00
28247;DHT22;34504;53.178;22.058;2022-08-25T00:20:25;22.90;91.00
28247;DHT22;34504;53.178;22.058;2022-08-25T00:22:53;22.90;91.20
28247;DHT22;34504;53.178;22.058;2022-08-25T00:25:23;22.90;91.20
28247;DHT22;34504;53.178;22.058;2022-08-25T00:27:51;22.80;91.30
28247;DHT22;34504;53.178;22.058;2022-08-25T00:30:19;22.80;91.30
28247;DHT22;34504;53.178;22.058;2022-08-25T00:32:48;22.70;91.40
28247;DHT22;34504;53.178;22.058;2022-08-25T00:35:25;22.70;91.50
28247;DHT22;34504;53.178;22.058;2022-08-25T00:37:53;22.70;91.50
28247;DHT22;34504;53.178;22.058;2022-08-25T00:40:23;22.70;91.60
28247;DHT22;34504;53.178;22.058;2022-08-25T00:42:51;22.70;91.60
28247;DHT22;34504;53.178;22.058;2022-08-25T00:45:20;22.70;91.60
28247;DHT22;34504;53.178;22.058;2022-08-25T00:47:48;22.60;91.70
28247;DHT22;34504;53.178;22.058;2022-08-25T00:50:18;22.50;91.90
28247;DHT22;34504;53.178;22.058;2022-08-25T00:52:50;22.60;91.90
28247;DHT22;34504;53.178;22.058;2022-08-25T00:55:32;22.60;91.80
28247;DHT22;34504;53.178;22.058;2022-08-25T00:58:18;22.60;91.90
28247;DHT22;34504;53.178;22.058;2022-08-25T01:00:49;22.50;92.00
28247;DHT22;34504;53.178;22.058;2022-08-25T01:03:19;22.50;91.80
28247;DHT22;34504;53.178;22.058;2022-08-25T01:05:51;22.50;91.90
28247;DHT22;34504;53.178;22.058;2022-08-25T01:08:23;22.50;91.90
28247;DHT22;34504;53.178;22.058;2022-08-25T01:10:58;22.50;91.90
28247;DHT22;34504;53.178;22.058;2022-08-25T01:13:54;22.40;91.90
28247;DHT22;34504;53.178;22.058;2022-08-25T01:16:24;22.40;92.10
28247;DHT22;34504;53.178;22.058;2022-08-25T01:18:56;22.40;92.00
28247;DHT22;34504;53.178;22.058;2022-08-25T01:21:26;22.30;92.10
28247;DHT22;34504;53.178;22.058;2022-08-25T01:23:57;22.30;92.20
28247;DHT22;34504;53.178;22.058;2022-08-25T01:26:32;22.30;92.20
28247;DHT22;34504;53.178;22.058;2022-08-25T01:29:05;22.20;92.30
28247;DHT22;34504;53.178;22.058;2022-08-25T01:31:51;22.20;92.30
28247;DHT22;34504;53.178;22.058;2022-08-25T01:34:21;22.10;92.30
28247;DHT22;34504;53.178;22.058;2022-08-25T01:36:50;22.10;92.30
28247;DHT22;34504;53.178;22.058;2022-08-25T01:39:18;22.20;92.30
28247;DHT22;34504;53.178;22.058;2022-08-25T01:44:32;22.10;92.50
28247;DHT22;34504;53.178;22.058;2022-08-25T01:47:03;22.10;92.50
28247;DHT22;34504;53.178;22.058;2022-08-25T01:49:31;22.00;92.60
28247;DHT22;34504;53.178;22.058;2022-08-25T01:54:33;22.10;92.70
28247;DHT22;34504;53.178;22.058;2022-08-25T01:57:02;22.10;92.60
28247;DHT22;34504;53.178;22.058;2022-08-25T01:59:30;22.00;92.60
28247;DHT22;34504;53.178;22.058;2022-08-25T02:01:58;22.10;92.70
28247;DHT22;34504;53.178;22.058;2022-08-25T02:04:27;22.00;92.60
28247;DHT22;34504;53.178;22.058;2022-08-25T02:07:02;22.00;92.60
28247;DHT22;34504;53.178;22.058;2022-08-25T02:09:31;22.00;92.60
28247;DHT22;34504;53.178;22.058;2022-08-25T02:11:59;22.00;92.60
28247;DHT22;34504;53.178;22.058;2022-08-25T02:14:27;22.00;92.60
28247;DHT22;34504;53.178;22.058;2022-08-25T02:16:55;21.90;92.60
28247;DHT22;34504;53.178;22.058;2022-08-25T02:19:24;21.90;92.70
28247;DHT22;34504;53.178;22.058;2022-08-25T02:21:52;21.90;92.70
28247;DHT22;34504;53.178;22.058;2022-08-25T02:24:21;21.90;92.70
28247;DHT22;34504;53.178;22.058;2022-08-25T02:26:49;21.90;92.70
28247;DHT22;34504;53.178;22.058;2022-08-25T02:29:17;21.90;92.70
28247;DHT22;34504;53.178;22.058;2022-08-25T02:31:45;21.80;92.70
28247;DHT22;34504;53.178;22.058;2022-08-25T02:34:13;21.80;92.70
28247;DHT22;34504;53.178;22.058;2022-08-25T02:36:42;21.80;92.70
28247;DHT22;34504;53.178;22.058;2022-08-25T02:39:11;21.80;92.70
28247;DHT22;34504;53.178;22.058;2022-08-25T02:41:39;21.80;92.70
28247;DHT22;34504;53.178;22.058;2022-08-25T02:44:07;21.80;92.60
28247;DHT22;34504;53.178;22.058;2022-08-25T02:46:36;21.80;92.70
28247;DHT22;34504;53.178;22.058;2022-08-25T02:49:06;21.80;92.70
28247;DHT22;34504;53.178;22.058;2022-08-25T02:51:34;21.80;92.70
28247;DHT22;34504;53.178;22.058;2022-08-25T02:54:04;21.80;92.70
28247;DHT22;34504;53.178;22.058;2022-08-25T02:56:33;21.80;92.70
28247;DHT22;34504;53.178;22.058;2022-08-25T02:59:01;21.80;92.70
28247;DHT22;34504;53.178;22.058;2022-08-25T03:01:30;21.80;92.80
28247;DHT22;34504;53.178;22.058;2022-08-25T03:04:00;21.80;92.80
28247;DHT22;34504;53.178;22.058;2022-08-25T03:06:28;21.90;92.80
28247;DHT22;34504;53.178;22.058;2022-08-25T03:08:57;21.80;92.80
28247;DHT22;34504;53.178;22.058;2022-08-25T03:11:25;21.90;92.80
28247;DHT22;34504;53.178;22.058;2022-08-25T03:13:53;21.90;92.80
28247;DHT22;34504;53.178;22.058;2022-08-25T03:16:23;21.90;92.90
28247;DHT22;34504;53.178;22.058;2022-08-25T03:18:54;21.90;92.90
28247;DHT22;34504;53.178;22.058;2022-08-25T03:21:25;21.90;92.80
28247;DHT22;34504;53.178;22.058;2022-08-25T03:23:54;21.90;92.80
28247;DHT22;34504;53.178;22.058;2022-08-25T03:26:22;21.80;92.70
28247;DHT22;34504;53.178;22.058;2022-08-25T03:29:09;21.80;92.80
28247;DHT22;34504;53.178;22.058;2022-08-25T03:31:37;21.70;92.80
28247;DHT22;34504;53.178;22.058;2022-08-25T03:34:06;21.70;92.80
28247;DHT22;34504;53.178;22.058;2022-08-25T03:36:34;21.70;92.90
28247;DHT22;34504;53.178;22.058;2022-08-25T03:39:03;21.70;92.90
28247;DHT22;34504;53.178;22.058;2022-08-25T03:41:31;21.70;93.00
28247;DHT22;34504;53.178;22.058;2022-08-25T03:44:02;21.60;93.10
28247;DHT22;34504;53.178;22.058;2022-08-25T03:46:31;21.60;93.20
28247;DHT22;34504;53.178;22.058;2022-08-25T03:49:02;21.60;93.30
28247;DHT22;34504;53.178;22.058;2022-08-25T03:51:36;21.50;93.10
28247;DHT22;34504;53.178;22.058;2022-08-25T03:54:09;21.60;93.20
28247;DHT22;34504;53.178;22.058;2022-08-25T03:56:37;21.60;93.20
28247;DHT22;34504;53.178;22.058;2022-08-25T03:59:06;21.60;93.20
28247;DHT22;34504;53.178;22.058;2022-08-25T04:01:39;21.60;93.20
28247;DHT22;34504;53.178;22.058;2022-08-25T04:04:09;21.60;93.20
28247;DHT22;34504;53.178;22.058;2022-08-25T04:06:38;21.70;93.20
28247;DHT22;34504;53.178;22.058;2022-08-25T04:09:08;21.70;93.10
28247;DHT22;34504;53.178;22.058;2022-08-25T04:11:36;21.70;93.10
28247;DHT22;34504;53.178;22.058;2022-08-25T04:14:04;21.80;93.00
28247;DHT22;34504;53.178;22.058;2022-08-25T04:16:34;21.80;92.90
28247;DHT22;34504;53.178;22.058;2022-08-25T04:19:04;21.90;92.90
28247;DHT22;34504;53.178;22.058;2022-08-25T04:21:38;21.90;92.60
28247;DHT22;34504;53.178;22.058;2022-08-25T04:24:09;21.90;92.50
28247;DHT22;34504;53.178;22.058;2022-08-25T04:26:42;21.90;92.50
28247;DHT22;34504;53.178;22.058;2022-08-25T04:29:11;21.90;92.50
28247;DHT22;34504;53.178;22.058;2022-08-25T04:31:42;21.90;92.50
28247;DHT22;34504;53.178;22.058;2022-08-25T04:34:11;21.90;92.40
28247;DHT22;34504;53.178;22.058;2022-08-25T04:36:58;22.00;92.50
28247;DHT22;34504;53.178;22.058;2022-08-25T04:39:27;21.90;92.60
28247;DHT22;34504;53.178;22.058;2022-08-25T04:41:55;21.90;92.50
28247;DHT22;34504;53.178;22.058;2022-08-25T04:44:24;21.90;92.60
28247;DHT22;34504;53.178;22.058;2022-08-25T04:46:52;21.90;92.50
28247;DHT22;34504;53.178;22.058;2022-08-25T04:49:20;21.90;92.50
28247;DHT22;34504;53.178;22.058;2022-08-25T04:51:48;21.90;92.40
28247;DHT22;34504;53.178;22.058;2022-08-25T04:54:17;21.90;92.40
28247;DHT22;34504;53.178;22.058;2022-08-25T04:56:49;22.00;92.40
28247;DHT22;34504;53.178;22.058;2022-08-25T04:59:25;22.10;92.70
28247;DHT22;34504;53.178;22.058;2022-08-25T05:02:00;22.10;92.30
28247;DHT22;34504;53.178;22.058;2022-08-25T05:04:31;22.20;92.20
28247;DHT22;34504;53.178;22.058;2022-08-25T05:07:00;22.20;92.10
28247;DHT22;34504;53.178;22.058;2022-08-25T05:09:29;22.30;92.10
28247;DHT22;34504;53.178;22.058;2022-08-25T05:12:03;22.30;92.10
28247;DHT22;34504;53.178;22.058;2022-08-25T05:14:32;22.30;92.10
28247;DHT22;34504;53.178;22.058;2022-08-25T05:17:01;22.30;92.00
28247;DHT22;34504;53.178;22.058;2022-08-25T05:19:30;22.40;91.90
28247;DHT22;34504;53.178;22.058;2022-08-25T05:21:58;22.40;91.90
28247;DHT22;34504;53.178;22.058;2022-08-25T05:24:26;22.40;91.90
28247;DHT22;34504;53.178;22.058;2022-08-25T05:26:55;22.50;91.90
28247;DHT22;34504;53.178;22.058;2022-08-25T05:29:23;22.50;91.90
28247;DHT22;34504;53.178;22.058;2022-08-25T05:31:51;22.60;91.70
28247;DHT22;34504;53.178;22.058;2022-08-25T05:34:21;22.70;91.80
28247;DHT22;34504;53.178;22.058;2022-08-25T05:36:49;22.80;91.60
28247;DHT22;34504;53.178;22.058;2022-08-25T05:39:18;22.90;91.50
28247;DHT22;34504;53.178;22.058;2022-08-25T05:41:46;23.00;91.40
28247;DHT22;34504;53.178;22.058;2022-08-25T05:44:14;23.20;91.30
28247;DHT22;34504;53.178;22.058;2022-08-25T05:46:48;23.40;91.00
28247;DHT22;34504;53.178;22.058;2022-08-25T05:49:16;23.50;90.60
28247;DHT22;34504;53.178;22.058;2022-08-25T05:51:44;23.70;90.30
28247;DHT22;34504;53.178;22.058;2022-08-25T05:54:12;23.80;89.60
28247;DHT22;34504;53.178;22.058;2022-08-25T05:56:40;23.90;88.50
28247;DHT22;34504;53.178;22.058;2022-08-25T05:59:08;24.00;87.70
28247;DHT22;34504;53.178;22.058;2022-08-25T06:01:37;24.20;86.90
28247;DHT22;34504;53.178;22.058;2022-08-25T06:04:23;24.30;86.40
28247;DHT22;34504;53.178;22.058;2022-08-25T06:06:52;24.50;85.40
28247;DHT22;34504;53.178;22.058;2022-08-25T06:09:22;24.50;84.90
28247;DHT22;34504;53.178;22.058;2022-08-25T06:11:51;24.70;84.10
28247;DHT22;34504;53.178;22.058;2022-08-25T06:14:22;24.80;83.50
28247;DHT22;34504;53.178;22.058;2022-08-25T06:16:51;24.80;83.10
28247;DHT22;34504;53.178;22.058;2022-08-25T06:19:20;24.90;82.90
28247;DHT22;34504;53.178;22.058;2022-08-25T06:21:53;25.00;82.50
28247;DHT22;34504;53.178;22.058;2022-08-25T06:24:26;25.00;82.70
28247;DHT22;34504;53.178;22.058;2022-08-25T06:26:55;25.20;82.40
28247;DHT22;34504;53.178;22.058;2022-08-25T06:29:24;25.20;81.30
28247;DHT22;34504;53.178;22.058;2022-08-25T06:31:52;25.30;81.60
28247;DHT22;34504;53.178;22.058;2022-08-25T06:34:21;25.40;80.80
28247;DHT22;34504;53.178;22.058;2022-08-25T06:36:51;25.50;80.80
28247;DHT22;34504;53.178;22.058;2022-08-25T06:39:20;25.60;80.10
28247;DHT22;34504;53.178;22.058;2022-08-25T06:41:52;25.60;79.00
28247;DHT22;34504;53.178;22.058;2022-08-25T06:44:25;25.70;78.50
28247;DHT22;34504;53.178;22.058;2022-08-25T06:46:54;25.70;78.50
28247;DHT22;34504;53.178;22.058;2022-08-25T06:49:22;25.80;77.90
28247;DHT22;34504;53.178;22.058;2022-08-25T06:51:59;25.80;77.80
28247;DHT22;34504;53.178;22.058;2022-08-25T06:54:28;25.90;78.10
28247;DHT22;34504;53.178;22.058;2022-08-25T06:56:56;26.00;76.80
28247;DHT22;34504;53.178;22.058;2022-08-25T06:59:24;26.00;76.40
28247;DHT22;34504;53.178;22.058;2022-08-25T07:01:59;26.10;76.90
28247;DHT22;34504;53.178;22.058;2022-08-25T07:04:30;26.20;76.20
28247;DHT22;34504;53.178;22.058;2022-08-25T07:06:58;26.20;75.80
28247;DHT22;34504;53.178;22.058;2022-08-25T07:09:26;26.30;75.60
28247;DHT22;34504;53.178;22.058;2022-08-25T07:11:54;26.40;74.90
28247;DHT22;34504;53.178;22.058;2022-08-25T07:14:23;26.50;75.30
28247;DHT22;34504;53.178;22.058;2022-08-25T07:16:51;26.60;74.90
28247;DHT22;34504;53.178;22.058;2022-08-25T07:19:20;26.60;73.20
28247;DHT22;34504;53.178;22.058;2022-08-25T07:21:51;26.60;73.30
28247;DHT22;34504;53.178;22.058;2022-08-25T07:24:20;26.80;73.60
28247;DHT22;34504;53.178;22.058;2022-08-25T07:26:49;26.90;73.60
28247;DHT22;34504;53.178;22.058;2022-08-25T07:29:21;26.90;73.50
28247;DHT22;34504;53.178;22.058;2022-08-25T07:32:00;27.10;73.30
28247;DHT22;34504;53.178;22.058;2022-08-25T07:34:30;27.10;71.40
28247;DHT22;34504;53.178;22.058;2022-08-25T07:37:20;27.20;71.60
28247;DHT22;34504;53.178;22.058;2022-08-25T07:40:16;27.30;69.50
28247;DHT22;34504;53.178;22.058;2022-08-25T07:42:45;27.40;69.90
28247;DHT22;34504;53.178;22.058;2022-08-25T07:45:14;27.50;69.60
28247;DHT22;34504;53.178;22.058;2022-08-25T07:47:48;27.60;69.10
28247;DHT22;34504;53.178;22.058;2022-08-25T07:50:19;27.80;69.40
28247;DHT22;34504;53.178;22.058;2022-08-25T07:52:47;27.80;68.70
28247;DHT22;34504;53.178;22.058;2022-08-25T07:55:23;28.00;67.90
28247;DHT22;34504;53.178;22.058;2022-08-25T07:57:53;28.00;66.90
28247;DHT22;34504;53.178;22.058;2022-08-25T08:00:25;28.10;67.00
28247;DHT22;34504;53.178;22.058;2022-08-25T08:02:56;28.20;66.40
28247;DHT22;34504;53.178;22.058;2022-08-25T08:05:26;28.30;66.20
28247;DHT22;34504;53.178;22.058;2022-08-25T08:07:55;28.40;65.50
28247;DHT22;34504;53.178;22.058;2022-08-25T08:10:24;28.40;64.90
28247;DHT22;34504;53.178;22.058;2022-08-25T08:13:13;28.50;64.80
28247;DHT22;34504;53.178;22.058;2022-08-25T08:15:45;28.50;63.80
28247;DHT22;34504;53.178;22.058;2022-08-25T08:18:16;28.60;63.60
28247;DHT22;34504;53.178;22.058;2022-08-25T08:20:48;28.60;63.20
28247;DHT22;34504;53.178;22.058;2022-08-25T08:23:16;28.70;62.00
28247;DHT22;34504;53.178;22.058;2022-08-25T08:25:45;28.80;61.40
28247;DHT22;34504;53.178;22.058;2022-08-25T08:28:13;28.90;60.10
28247;DHT22;34504;53.178;22.058;2022-08-25T08:30:41;29.00;59.60
28247;DHT22;34504;53.178;22.058;2022-08-25T08:33:21;29.10;59.40
28247;DHT22;34504;53.178;22.058;2022-08-25T08:36:20;29.20;58.70
28247;DHT22;34504;53.178;22.058;2022-08-25T08:38:52;29.30;57.40
28247;DHT22;34504;53.178;22.058;2022-08-25T08:50:27;29.40;57.00
28247;DHT22;34504;53.178;22.058;2022-08-25T08:55:39;29.50;58.20
28247;DHT22;34504;53.178;22.058;2022-08-25T08:58:36;29.50;56.60
28247;DHT22;34504;53.178;22.058;2022-08-25T09:01:11;29.60;54.90
28247;DHT22;34504;53.178;22.058;2022-08-25T09:03:49;29.70;56.20
28247;DHT22;34504;53.178;22.058;2022-08-25T09:08:54;29.90;56.10
28247;DHT22;34504;53.178;22.058;2022-08-25T09:11:53;30.00;55.90
28247;DHT22;34504;53.178;22.058;2022-08-25T09:15:19;30.20;53.60
28247;DHT22;34504;53.178;22.058;2022-08-25T09:23:33;30.70;53.50
28247;DHT22;34504;53.178;22.058;2022-08-25T09:26:32;30.70;52.80
28247;DHT22;34504;53.178;22.058;2022-08-25T09:29:09;30.80;52.30
28247;DHT22;34504;53.178;22.058;2022-08-25T09:31:43;30.80;52.90
28247;DHT22;34504;53.178;22.058;2022-08-25T09:34:21;30.90;53.50
28247;DHT22;34504;53.178;22.058;2022-08-25T09:36:50;31.00;52.30
28247;DHT22;34504;53.178;22.058;2022-08-25T09:39:20;31.00;51.70
28247;DHT22;34504;53.178;22.058;2022-08-25T09:41:53;31.00;52.20
28247;DHT22;34504;53.178;22.058;2022-08-25T09:47:23;31.00;53.20
28247;DHT22;34504;53.178;22.058;2022-08-25T09:50:03;31.10;53.20
28247;DHT22;34504;53.178;22.058;2022-08-25T09:57:46;31.00;49.50
28247;DHT22;34504;53.178;22.058;2022-08-25T10:00:26;31.00;50.20
28247;DHT22;34504;53.178;22.058;2022-08-25T10:03:04;31.00;50.60
28247;DHT22;34504;53.178;22.058;2022-08-25T10:05:40;31.00;48.50
28247;DHT22;34504;53.178;22.058;2022-08-25T10:11:00;31.00;50.10
28247;DHT22;34504;53.178;22.058;2022-08-25T10:13:46;31.00;49.30
28247;DHT22;34504;53.178;22.058;2022-08-25T10:16:29;31.00;48.80
28247;DHT22;34504;53.178;22.058;2022-08-25T10:19:27;31.10;49.00
28247;DHT22;34504;53.178;22.058;2022-08-25T10:24:34;31.10;47.30
28247;DHT22;34504;53.178;22.058;2022-08-25T10:30:11;31.20;47.30
28247;DHT22;34504;53.178;22.058;2022-08-25T10:36:22;31.30;46.50
28247;DHT22;34504;53.178;22.058;2022-08-25T10:38:55;31.40;46.40
28247;DHT22;34504;53.178;22.058;2022-08-25T11:04:02;31.70;40.20
28247;DHT22;34504;53.178;22.058;2022-08-25T11:06:51;31.80;40.40
28247;DHT22;34504;53.178;22.058;2022-08-25T11:09:28;31.80;39.70
28247;DHT22;34504;53.178;22.058;2022-08-25T11:12:07;31.80;40.20
28247;DHT22;34504;53.178;22.058;2022-08-25T11:14:51;31.80;38.50
28247;DHT22;34504;53.178;22.058;2022-08-25T11:19:53;31.70;38.50
28247;DHT22;34504;53.178;22.058;2022-08-25T11:25:08;31.70;38.60
28247;DHT22;34504;53.178;22.058;2022-08-25T11:27:46;31.60;39.20
28247;DHT22;34504;53.178;22.058;2022-08-25T11:30:17;31.60;39.20
28247;DHT22;34504;53.178;22.058;2022-08-25T11:32:51;31.60;40.10
28247;DHT22;34504;53.178;22.058;2022-08-25T11:35:40;31.50;40.00
28247;DHT22;34504;53.178;22.058;2022-08-25T11:44:32;31.50;38.10
28247;DHT22;34504;53.178;22.058;2022-08-25T11:55:49;31.40;39.30
28247;DHT22;34504;53.178;22.058;2022-08-25T12:01:00;31.40;38.90
28247;DHT22;34504;53.178;22.058;2022-08-25T12:06:29;31.40;39.50
28247;DHT22;34504;53.178;22.058;2022-08-25T12:22:37;31.60;37.60
28247;DHT22;34504;53.178;22.058;2022-08-25T12:25:00;31.70;38.20
28247;DHT22;34504;53.178;22.058;2022-08-25T12:27:57;31.80;37.70
28247;DHT22;34504;53.178;22.058;2022-08-25T12:30:47;31.80;37.40
28247;DHT22;34504;53.178;22.058;2022-08-25T12:33:54;31.80;37.80
28247;DHT22;34504;53.178;22.058;2022-08-25T12:36:31;31.80;37.40
28247;DHT22;34504;53.178;22.058;2022-08-25T12:39:30;31.90;37.60
28247;DHT22;34504;53.178;22.058;2022-08-25T12:42:04;31.90;37.10
28247;DHT22;34504;53.178;22.058;2022-08-25T12:49:51;32.00;37.10
28247;DHT22;34504;53.178;22.058;2022-08-25T12:52:22;32.00;37.80
28247;DHT22;34504;53.178;22.058;2022-08-25T12:54:58;32.00;37.90
28247;DHT22;34504;53.178;22.058;2022-08-25T13:00:28;32.10;37.70
28247;DHT22;34504;53.178;22.058;2022-08-25T13:14:03;32.20;36.80
28247;DHT22;34504;53.178;22.058;2022-08-25T13:16:33;32.30;37.10
28247;DHT22;34504;53.178;22.058;2022-08-25T13:19:04;32.30;36.90
28247;DHT22;34504;53.178;22.058;2022-08-25T13:21:37;32.30;37.20
28247;DHT22;34504;53.178;22.058;2022-08-25T13:24:10;32.30;36.40
28247;DHT22;34504;53.178;22.058;2022-08-25T13:26:41;32.30;36.50
28247;DHT22;34504;53.178;22.058;2022-08-25T13:29:21;32.30;36.80
28247;DHT22;34504;53.178;22.058;2022-08-25T13:34:39;32.30;36.20
28247;DHT22;34504;53.178;22.058;2022-08-25T13:37:15;32.30;37.50
28247;DHT22;34504;53.178;22.058;2022-08-25T13:40:42;32.20;36.20
28247;DHT22;34504;53.178;22.058;2022-08-25T13:43:06;32.20;35.90
28247;DHT22;34504;53.178;22.058;2022-08-25T13:45:42;32.20;36.50
28247;DHT22;34504;53.178;22.058;2022-08-25T13:48:13;32.30;36.40
28247;DHT22;34504;53.178;22.058;2022-08-25T13:50:50;32.30;36.40
28247;DHT22;34504;53.178;22.058;2022-08-25T13:53:24;32.20;36.20
28247;DHT22;34504;53.178;22.058;2022-08-25T13:55:57;32.20;35.70
28247;DHT22;34504;53.178;22.058;2022-08-25T13:58:31;32.20;36.00
28247;DHT22;34504;53.178;22.058;2022-08-25T14:01:16;32.20;35.70
28247;DHT22;34504;53.178;22.058;2022-08-25T14:04:43;32.20;35.80
28247;DHT22;34504;53.178;22.058;2022-08-25T14:09:59;32.30;36.30
28247;DHT22;34504;53.178;22.058;2022-08-25T14:20:46;32.30;35.60
28247;DHT22;34504;53.178;22.058;2022-08-25T14:23:20;32.30;36.00
28247;DHT22;34504;53.178;22.058;2022-08-25T14:25:50;32.30;36.20
28247;DHT22;34504;53.178;22.058;2022-08-25T14:28:21;32.40;36.80
28247;DHT22;34504;53.178;22.058;2022-08-25T14:30:53;32.40;35.80
28247;DHT22;34504;53.178;22.058;2022-08-25T14:33:27;32.30;36.00
28247;DHT22;34504;53.178;22.058;2022-08-25T14:35:58;32.30;35.60
28247;DHT22;34504;53.178;22.058;2022-08-25T14:38:27;32.30;35.60
28247;DHT22;34504;53.178;22.058;2022-08-25T14:40:55;32.30;36.00
28247;DHT22;34504;53.178;22.058;2022-08-25T14:43:26;32.30;35.60
28247;DHT22;34504;53.178;22.058;2022-08-25T14:46:02;32.30;35.40
28247;DHT22;34504;53.178;22.058;2022-08-25T14:48:38;32.30;35.60
28247;DHT22;34504;53.178;22.058;2022-08-25T14:51:10;32.20;35.30
28247;DHT22;34504;53.178;22.058;2022-08-25T14:53:39;32.20;35.40
28247;DHT22;34504;53.178;22.058;2022-08-25T14:56:08;32.20;35.50
28247;DHT22;34504;53.178;22.058;2022-08-25T14:58:38;32.20;35.50
28247;DHT22;34504;53.178;22.058;2022-08-25T15:01:22;32.30;35.70
28247;DHT22;34504;53.178;22.058;2022-08-25T15:04:11;32.30;35.70
28247;DHT22;34504;53.178;22.058;2022-08-25T15:06:42;32.30;35.80
28247;DHT22;34504;53.178;22.058;2022-08-25T15:09:14;32.30;35.60
28247;DHT22;34504;53.178;22.058;2022-08-25T15:11:53;32.30;35.70
28247;DHT22;34504;53.178;22.058;2022-08-25T15:14:23;32.30;35.30
28247;DHT22;34504;53.178;22.058;2022-08-25T15:17:00;32.30;35.30
28247;DHT22;34504;53.178;22.058;2022-08-25T15:19:29;32.30;35.40
28247;DHT22;34504;53.178;22.058;2022-08-25T15:21:57;32.30;35.00
28247;DHT22;34504;53.178;22.058;2022-08-25T15:24:27;32.30;35.90
28247;DHT22;34504;53.178;22.058;2022-08-25T15:26:57;32.30;35.60
28247;DHT22;34504;53.178;22.058;2022-08-25T15:29:27;32.30;35.50
28247;DHT22;34504;53.178;22.058;2022-08-25T15:31:58;32.30;35.60
28247;DHT22;34504;53.178;22.058;2022-08-25T15:34:28;32.30;35.80
28247;DHT22;34504;53.178;22.058;2022-08-25T15:36:57;32.40;35.80
28247;DHT22;34504;53.178;22.058;2022-08-25T15:39:26;32.30;35.40
28247;DHT22;34504;53.178;22.058;2022-08-25T15:41:54;32.30;35.70
28247;DHT22;34504;53.178;22.058;2022-08-25T15:44:23;32.30;35.80
28247;DHT22;34504;53.178;22.058;2022-08-25T15:46:57;32.30;36.20
28247;DHT22;34504;53.178;22.058;2022-08-25T15:49:27;32.30;36.20
28247;DHT22;34504;53.178;22.058;2022-08-25T15:51:58;32.20;36.30
28247;DHT22;34504;53.178;22.058;2022-08-25T15:54:27;32.20;36.50
28247;DHT22;34504;53.178;22.058;2022-08-25T15:56:57;32.20;36.30
28247;DHT22;34504;53.178;22.058;2022-08-25T15:59:27;32.20;36.20
28247;DHT22;34504;53.178;22.058;2022-08-25T16:01:56;32.20;36.10
28247;DHT22;34504;53.178;22.058;2022-08-25T16:04:26;32.10;36.00
28247;DHT22;34504;53.178;22.058;2022-08-25T16:06:55;32.10;36.10
28247;DHT22;34504;53.178;22.058;2022-08-25T16:09:24;32.10;36.20
28247;DHT22;34504;53.178;22.058;2022-08-25T16:11:53;32.10;36.20
28247;DHT22;34504;53.178;22.058;2022-08-25T16:14:25;32.00;35.90
28247;DHT22;34504;53.178;22.058;2022-08-25T16:16:55;32.00;36.20
28247;DHT22;34504;53.178;22.058;2022-08-25T16:19:27;32.00;36.50
28247;DHT22;34504;53.178;22.058;2022-08-25T16:21:56;31.90;36.30
28247;DHT22;34504;53.178;22.058;2022-08-25T16:24:26;31.90;36.70
28247;DHT22;34504;53.178;22.058;2022-08-25T16:26:55;31.90;36.90
28247;DHT22;34504;53.178;22.058;2022-08-25T16:29:39;31.80;36.80
28247;DHT22;34504;53.178;22.058;2022-08-25T16:32:10;31.70;36.60
28247;DHT22;34504;53.178;22.058;2022-08-25T16:34:40;31.70;37.00
28247;DHT22;34504;53.178;22.058;2022-08-25T16:37:08;31.60;37.00
28247;DHT22;34504;53.178;22.058;2022-08-25T16:39:37;31.60;37.10
28247;DHT22;34504;53.178;22.058;2022-08-25T16:42:11;31.50;36.90
28247;DHT22;34504;53.178;22.058;2022-08-25T16:44:40;31.50;37.10
28247;DHT22;34504;53.178;22.058;2022-08-25T16:47:11;31.40;37.30
28247;DHT22;34504;53.178;22.058;2022-08-25T16:49:45;31.40;37.30
28247;DHT22;34504;53.178;22.058;2022-08-25T16:52:14;31.30;37.40
28247;DHT22;34504;53.178;22.058;2022-08-25T16:55:02;31.30;37.50
28247;DHT22;34504;53.178;22.058;2022-08-25T16:57:41;31.20;37.70
28247;DHT22;34504;53.178;22.058;2022-08-25T17:00:13;31.10;37.60
28247;DHT22;34504;53.178;22.058;2022-08-25T17:02:42;31.10;37.90
28247;DHT22;34504;53.178;22.058;2022-08-25T17:05:12;31.00;37.90
28247;DHT22;34504;53.178;22.058;2022-08-25T17:07:40;31.00;38.10
28247;DHT22;34504;53.178;22.058;2022-08-25T17:10:08;30.90;38.20
28247;DHT22;34504;53.178;22.058;2022-08-25T17:12:39;30.80;38.10
28247;DHT22;34504;53.178;22.058;2022-08-25T17:15:07;30.80;38.50
28247;DHT22;34504;53.178;22.058;2022-08-25T17:17:35;30.70;38.60
28247;DHT22;34504;53.178;22.058;2022-08-25T17:20:04;30.60;38.70
28247;DHT22;34504;53.178;22.058;2022-08-25T17:22:32;30.60;38.90
28247;DHT22;34504;53.178;22.058;2022-08-25T17:25:01;30.50;39.00
28247;DHT22;34504;53.178;22.058;2022-08-25T17:27:33;30.40;39.20
28247;DHT22;34504;53.178;22.058;2022-08-25T17:30:02;30.40;39.40
28247;DHT22;34504;53.178;22.058;2022-08-25T17:32:30;30.30;39.70
28247;DHT22;34504;53.178;22.058;2022-08-25T17:34:59;30.20;39.90
28247;DHT22;34504;53.178;22.058;2022-08-25T17:37:30;30.10;40.30
28247;DHT22;34504;53.178;22.058;2022-08-25T17:39:58;30.00;40.70
28247;DHT22;34504;53.178;22.058;2022-08-25T17:42:30;29.90;41.00
28247;DHT22;34504;53.178;22.058;2022-08-25T17:44:58;29.80;41.40
28247;DHT22;34504;53.178;22.058;2022-08-25T17:47:26;29.70;41.70
28247;DHT22;34504;53.178;22.058;2022-08-25T17:49:55;29.60;42.00
28247;DHT22;34504;53.178;22.058;2022-08-25T17:52:23;29.60;42.40
28247;DHT22;34504;53.178;22.058;2022-08-25T17:54:52;29.50;42.60
28247;DHT22;34504;53.178;22.058;2022-08-25T17:57:21;29.40;42.80
28247;DHT22;34504;53.178;22.058;2022-08-25T17:59:49;29.30;43.00
28247;DHT22;34504;53.178;22.058;2022-08-25T18:02:17;29.30;43.20
28247;DHT22;34504;53.178;22.058;2022-08-25T18:04:45;29.20;43.20
28247;DHT22;34504;53.178;22.058;2022-08-25T18:07:13;29.10;43.40